Miniplon — FIDV — position and weather

sailwx.info

Track history (hours):
 
Tides and Currents Weather Stations Pressure Air Temp Water Temp Dewpoint Dewpoint Depression Visibility Wind Speed Wind Dir Waves Ship Positions

Miniplon

Last reported at 2017-Nov-17 12:23 UTC. Time now 2017-Nov-18 20:01 UTC.
Position N 46°30' W 001°47'.

Type: SAR. MMSI: 228024600.

Date/timePositionNaut miles runAvg speedWind from/ knotsBaromVisibWave heightAir tempDewpointWater temp
2017-Nov-17 12:23N 46°30' W 001°47'0 0.7
2017-Nov-17 11:57N 46°30' W 001°48'0 0.4
2017-Nov-17 11:30N 46°30' W 001°48'  
2017-Nov-09 23:54N 46°30' W 001°47'0 0.2
2017-Nov-09 23:30N 46°30' W 001°47'3 5.7
2017-Nov-09 23:00N 46°29' W 001°51'5 9.6
2017-Nov-09 22:30N 46°33' W 001°56'11 0.7
2017-Nov-09 07:26N 46°41' W 002°06'4 8.4
2017-Nov-09 07:00N 46°38' W 002°03'4 8.6
2017-Nov-09 06:30N 46°35' W 001°59'4 8.5
2017-Nov-09 06:00N 46°32' W 001°55'4 8.4
2017-Nov-09 05:30N 46°29' W 001°51'2 4.7
2017-Nov-09 05:00N 46°30' W 001°47'  
Track history (hours):
 
Tides and Currents Weather Stations Pressure Air Temp Water Temp Dewpoint Dewpoint Depression Visibility Wind Speed Wind Dir Waves Ship Positions

Miniplon

Last reported at 2017-Nov-17 12:23 UTC. Time now 2017-Nov-18 20:01 UTC.
Position N 46°30' W 001°47'.

Type: SAR. MMSI: 228024600.

Date/timePositionNaut miles runAvg speedWind from/ knotsBaromVisibWave heightAir tempDewpointWater temp
2017-Nov-17 12:23N 46°30' W 001°47'0 0.7
2017-Nov-17 11:57N 46°30' W 001°48'0 0.4
2017-Nov-17 11:30N 46°30' W 001°48'  
2017-Nov-09 23:54N 46°30' W 001°47'0 0.2
2017-Nov-09 23:30N 46°30' W 001°47'3 5.7
2017-Nov-09 23:00N 46°29' W 001°51'5 9.6
2017-Nov-09 22:30N 46°33' W 001°56'11 0.7
2017-Nov-09 07:26N 46°41' W 002°06'4 8.4
2017-Nov-09 07:00N 46°38' W 002°03'4 8.6
2017-Nov-09 06:30N 46°35' W 001°59'4 8.5
2017-Nov-09 06:00N 46°32' W 001°55'4 8.4
2017-Nov-09 05:30N 46°29' W 001°51'2 4.7
2017-Nov-09 05:00N 46°30' W 001°47'  

Dump ship's entire track history